sensor_id;sensor_type;location;lat;lon;timestamp;P1;durP1;ratioP1;P2;durP2;ratioP2
17235;SDS011;8734;59.272;17.780;2023-03-20T00:00:59;8.40;;;3.57;;
17235;SDS011;8734;59.272;17.780;2023-03-20T00:03:27;19.37;;;4.53;;
17235;SDS011;8734;59.272;17.780;2023-03-20T00:05:55;9.20;;;4.07;;
17235;SDS011;8734;59.272;17.780;2023-03-20T00:08:24;11.43;;;4.50;;
17235;SDS011;8734;59.272;17.780;2023-03-20T00:10:56;10.90;;;3.63;;
17235;SDS011;8734;59.272;17.780;2023-03-20T00:13:25;9.93;;;4.13;;
17235;SDS011;8734;59.272;17.780;2023-03-20T00:15:54;12.57;;;4.77;;
17235;SDS011;8734;59.272;17.780;2023-03-20T00:18:23;15.83;;;4.37;;
17235;SDS011;8734;59.272;17.780;2023-03-20T00:20:52;26.10;;;6.93;;
17235;SDS011;8734;59.272;17.780;2023-03-20T00:23:20;21.03;;;4.20;;
17235;SDS011;8734;59.272;17.780;2023-03-20T00:25:48;24.17;;;7.00;;
17235;SDS011;8734;59.272;17.780;2023-03-20T00:31:13;21.43;;;3.77;;
17235;SDS011;8734;59.272;17.780;2023-03-20T00:33:47;21.13;;;4.83;;
17235;SDS011;8734;59.272;17.780;2023-03-20T00:36:15;19.80;;;3.60;;
17235;SDS011;8734;59.272;17.780;2023-03-20T00:38:43;20.80;;;4.87;;
17235;SDS011;8734;59.272;17.780;2023-03-20T00:41:17;28.70;;;4.47;;
17235;SDS011;8734;59.272;17.780;2023-03-20T00:43:51;25.00;;;3.97;;
17235;SDS011;8734;59.272;17.780;2023-03-20T00:46:21;11.10;;;4.27;;
17235;SDS011;8734;59.272;17.780;2023-03-20T00:48:50;18.07;;;4.60;;
17235;SDS011;8734;59.272;17.780;2023-03-20T00:51:19;8.03;;;3.93;;
17235;SDS011;8734;59.272;17.780;2023-03-20T00:53:47;14.20;;;4.43;;
17235;SDS011;8734;59.272;17.780;2023-03-20T00:56:27;9.10;;;4.00;;
17235;SDS011;8734;59.272;17.780;2023-03-20T00:59:00;11.10;;;3.40;;
17235;SDS011;8734;59.272;17.780;2023-03-20T01:01:31;14.77;;;3.93;;
17235;SDS011;8734;59.272;17.780;2023-03-20T01:03:59;12.87;;;3.70;;
17235;SDS011;8734;59.272;17.780;2023-03-20T01:06:28;7.67;;;3.77;;
17235;SDS011;8734;59.272;17.780;2023-03-20T01:08:56;8.73;;;3.60;;
17235;SDS011;8734;59.272;17.780;2023-03-20T01:11:25;8.27;;;3.87;;
17235;SDS011;8734;59.272;17.780;2023-03-20T01:13:54;7.43;;;3.43;;
17235;SDS011;8734;59.272;17.780;2023-03-20T01:16:24;8.10;;;3.33;;
17235;SDS011;8734;59.272;17.780;2023-03-20T01:18:53;6.77;;;3.13;;
17235;SDS011;8734;59.272;17.780;2023-03-20T01:21:22;11.97;;;3.97;;
17235;SDS011;8734;59.272;17.780;2023-03-20T01:23:51;8.30;;;3.60;;
17235;SDS011;8734;59.272;17.780;2023-03-20T01:26:20;8.07;;;2.83;;
17235;SDS011;8734;59.272;17.780;2023-03-20T01:28:52;13.83;;;3.57;;
17235;SDS011;8734;59.272;17.780;2023-03-20T01:31:20;13.43;;;4.00;;
17235;SDS011;8734;59.272;17.780;2023-03-20T01:33:50;9.87;;;3.67;;
17235;SDS011;8734;59.272;17.780;2023-03-20T01:36:19;12.40;;;3.77;;
17235;SDS011;8734;59.272;17.780;2023-03-20T01:38:51;8.87;;;3.60;;
17235;SDS011;8734;59.272;17.780;2023-03-20T01:41:23;7.30;;;3.27;;
17235;SDS011;8734;59.272;17.780;2023-03-20T01:43:52;9.43;;;3.57;;
17235;SDS011;8734;59.272;17.780;2023-03-20T01:46:22;11.53;;;3.70;;
17235;SDS011;8734;59.272;17.780;2023-03-20T01:49:08;9.40;;;3.33;;
17235;SDS011;8734;59.272;17.780;2023-03-20T01:52:13;15.27;;;3.47;;
17235;SDS011;8734;59.272;17.780;2023-03-20T01:54:42;12.97;;;3.77;;
17235;SDS011;8734;59.272;17.780;2023-03-20T01:57:11;22.07;;;3.43;;
17235;SDS011;8734;59.272;17.780;2023-03-20T01:59:44;18.67;;;3.53;;
17235;SDS011;8734;59.272;17.780;2023-03-20T02:02:17;24.50;;;4.03;;
17235;SDS011;8734;59.272;17.780;2023-03-20T02:04:51;13.10;;;4.20;;
17235;SDS011;8734;59.272;17.780;2023-03-20T02:07:23;11.10;;;3.60;;
17235;SDS011;8734;59.272;17.780;2023-03-20T02:09:52;9.23;;;3.57;;
17235;SDS011;8734;59.272;17.780;2023-03-20T02:12:20;24.00;;;3.97;;
17235;SDS011;8734;59.272;17.780;2023-03-20T02:14:48;13.93;;;4.40;;
17235;SDS011;8734;59.272;17.780;2023-03-20T02:17:18;12.50;;;3.80;;
17235;SDS011;8734;59.272;17.780;2023-03-20T02:19:52;15.73;;;4.10;;
17235;SDS011;8734;59.272;17.780;2023-03-20T02:22:36;15.20;;;4.30;;
17235;SDS011;8734;59.272;17.780;2023-03-20T02:25:31;13.47;;;3.93;;
17235;SDS011;8734;59.272;17.780;2023-03-20T02:31:53;19.47;;;4.67;;
17235;SDS011;8734;59.272;17.780;2023-03-20T02:40:57;34.27;;;4.90;;
17235;SDS011;8734;59.272;17.780;2023-03-20T02:43:31;57.40;;;5.50;;
17235;SDS011;8734;59.272;17.780;2023-03-20T02:46:10;29.93;;;4.17;;
17235;SDS011;8734;59.272;17.780;2023-03-20T02:48:51;29.23;;;5.13;;
17235;SDS011;8734;59.272;17.780;2023-03-20T02:51:24;26.93;;;6.13;;
17235;SDS011;8734;59.272;17.780;2023-03-20T02:54:00;34.17;;;5.17;;
17235;SDS011;8734;59.272;17.780;2023-03-20T02:56:36;44.53;;;7.07;;
17235;SDS011;8734;59.272;17.780;2023-03-20T02:59:16;24.37;;;6.63;;
17235;SDS011;8734;59.272;17.780;2023-03-20T03:01:50;23.30;;;6.73;;
17235;SDS011;8734;59.272;17.780;2023-03-20T03:04:23;35.00;;;6.77;;
17235;SDS011;8734;59.272;17.780;2023-03-20T03:06:56;30.83;;;8.40;;
17235;SDS011;8734;59.272;17.780;2023-03-20T03:09:27;18.40;;;6.80;;
17235;SDS011;8734;59.272;17.780;2023-03-20T03:11:59;21.70;;;7.73;;
17235;SDS011;8734;59.272;17.780;2023-03-20T03:14:34;24.67;;;6.90;;
17235;SDS011;8734;59.272;17.780;2023-03-20T03:17:04;24.33;;;8.37;;
17235;SDS011;8734;59.272;17.780;2023-03-20T03:19:35;20.97;;;6.43;;
17235;SDS011;8734;59.272;17.780;2023-03-20T03:22:05;25.77;;;7.57;;
17235;SDS011;8734;59.272;17.780;2023-03-20T03:24:36;28.20;;;8.17;;
17235;SDS011;8734;59.272;17.780;2023-03-20T03:27:09;25.27;;;7.53;;
17235;SDS011;8734;59.272;17.780;2023-03-20T03:29:43;31.73;;;8.80;;
17235;SDS011;8734;59.272;17.780;2023-03-20T03:32:24;29.20;;;8.40;;
17235;SDS011;8734;59.272;17.780;2023-03-20T03:34:54;25.37;;;7.97;;
17235;SDS011;8734;59.272;17.780;2023-03-20T03:37:26;34.87;;;8.40;;
17235;SDS011;8734;59.272;17.780;2023-03-20T03:40:08;21.37;;;7.20;;
17235;SDS011;8734;59.272;17.780;2023-03-20T03:42:47;31.57;;;8.70;;
17235;SDS011;8734;59.272;17.780;2023-03-20T03:45:21;16.23;;;6.37;;
17235;SDS011;8734;59.272;17.780;2023-03-20T03:47:57;20.70;;;6.60;;
17235;SDS011;8734;59.272;17.780;2023-03-20T03:50:28;24.13;;;7.77;;
17235;SDS011;8734;59.272;17.780;2023-03-20T03:53:01;9.83;;;2.93;;
17235;SDS011;8734;59.272;17.780;2023-03-20T03:55:36;12.70;;;5.17;;
17235;SDS011;8734;59.272;17.780;2023-03-20T03:58:10;12.57;;;4.70;;
17235;SDS011;8734;59.272;17.780;2023-03-20T04:00:41;9.50;;;4.77;;
17235;SDS011;8734;59.272;17.780;2023-03-20T04:03:13;7.53;;;2.93;;
17235;SDS011;8734;59.272;17.780;2023-03-20T04:05:43;9.03;;;4.50;;
17235;SDS011;8734;59.272;17.780;2023-03-20T04:08:13;10.93;;;4.50;;
17235;SDS011;8734;59.272;17.780;2023-03-20T04:10:44;6.73;;;3.90;;
17235;SDS011;8734;59.272;17.780;2023-03-20T04:13:12;7.63;;;4.00;;
17235;SDS011;8734;59.272;17.780;2023-03-20T04:15:41;10.60;;;4.10;;
17235;SDS011;8734;59.272;17.780;2023-03-20T04:18:10;7.83;;;4.27;;
17235;SDS011;8734;59.272;17.780;2023-03-20T04:20:42;6.03;;;3.37;;
17235;SDS011;8734;59.272;17.780;2023-03-20T04:23:10;7.10;;;2.70;;
17235;SDS011;8734;59.272;17.780;2023-03-20T04:25:40;7.23;;;3.60;;
17235;SDS011;8734;59.272;17.780;2023-03-20T04:28:09;7.77;;;3.47;;
17235;SDS011;8734;59.272;17.780;2023-03-20T04:30:41;3.53;;;2.60;;
17235;SDS011;8734;59.272;17.780;2023-03-20T04:33:13;6.57;;;3.63;;
17235;SDS011;8734;59.272;17.780;2023-03-20T04:35:41;8.43;;;3.33;;
17235;SDS011;8734;59.272;17.780;2023-03-20T04:38:10;6.23;;;3.47;;
17235;SDS011;8734;59.272;17.780;2023-03-20T04:40:39;6.27;;;3.43;;
17235;SDS011;8734;59.272;17.780;2023-03-20T04:43:07;6.90;;;3.10;;
17235;SDS011;8734;59.272;17.780;2023-03-20T04:45:37;8.77;;;3.93;;
17235;SDS011;8734;59.272;17.780;2023-03-20T04:48:07;9.47;;;4.27;;
17235;SDS011;8734;59.272;17.780;2023-03-20T04:50:35;10.83;;;4.53;;
17235;SDS011;8734;59.272;17.780;2023-03-20T04:53:04;12.73;;;4.37;;
17235;SDS011;8734;59.272;17.780;2023-03-20T04:55:32;11.03;;;4.93;;
17235;SDS011;8734;59.272;17.780;2023-03-20T04:58:01;12.37;;;5.20;;
17235;SDS011;8734;59.272;17.780;2023-03-20T05:00:31;11.77;;;5.80;;
17235;SDS011;8734;59.272;17.780;2023-03-20T05:03:00;18.03;;;7.13;;
17235;SDS011;8734;59.272;17.780;2023-03-20T05:05:28;25.03;;;6.77;;
17235;SDS011;8734;59.272;17.780;2023-03-20T05:07:57;24.07;;;7.37;;
17235;SDS011;8734;59.272;17.780;2023-03-20T05:10:26;19.80;;;6.73;;
17235;SDS011;8734;59.272;17.780;2023-03-20T05:12:55;19.97;;;6.67;;
17235;SDS011;8734;59.272;17.780;2023-03-20T05:15:23;20.87;;;7.30;;
17235;SDS011;8734;59.272;17.780;2023-03-20T05:17:53;22.50;;;6.37;;
17235;SDS011;8734;59.272;17.780;2023-03-20T05:20:21;24.03;;;7.20;;
17235;SDS011;8734;59.272;17.780;2023-03-20T05:22:50;26.27;;;7.53;;
17235;SDS011;8734;59.272;17.780;2023-03-20T05:25:18;37.80;;;8.13;;
17235;SDS011;8734;59.272;17.780;2023-03-20T05:27:47;23.87;;;7.30;;
17235;SDS011;8734;59.272;17.780;2023-03-20T05:30:16;22.77;;;6.20;;
17235;SDS011;8734;59.272;17.780;2023-03-20T05:32:44;25.63;;;8.17;;
17235;SDS011;8734;59.272;17.780;2023-03-20T05:35:17;26.40;;;8.00;;
17235;SDS011;8734;59.272;17.780;2023-03-20T05:37:46;27.67;;;7.70;;
17235;SDS011;8734;59.272;17.780;2023-03-20T05:40:15;23.40;;;7.60;;
17235;SDS011;8734;59.272;17.780;2023-03-20T05:42:45;39.47;;;9.07;;
17235;SDS011;8734;59.272;17.780;2023-03-20T05:45:13;27.63;;;7.97;;
17235;SDS011;8734;59.272;17.780;2023-03-20T05:47:42;34.50;;;9.80;;
17235;SDS011;8734;59.272;17.780;2023-03-20T05:50:10;45.23;;;9.40;;
17235;SDS011;8734;59.272;17.780;2023-03-20T05:52:44;35.00;;;8.90;;
17235;SDS011;8734;59.272;17.780;2023-03-20T05:55:14;40.30;;;9.23;;
17235;SDS011;8734;59.272;17.780;2023-03-20T05:57:43;35.90;;;7.23;;
17235;SDS011;8734;59.272;17.780;2023-03-20T06:00:11;38.23;;;8.73;;
17235;SDS011;8734;59.272;17.780;2023-03-20T06:02:41;47.57;;;10.70;;
17235;SDS011;8734;59.272;17.780;2023-03-20T06:05:12;47.97;;;10.00;;
17235;SDS011;8734;59.272;17.780;2023-03-20T06:07:42;62.70;;;10.57;;
17235;SDS011;8734;59.272;17.780;2023-03-20T06:10:11;39.43;;;10.27;;
17235;SDS011;8734;59.272;17.780;2023-03-20T06:12:39;48.47;;;11.13;;
17235;SDS011;8734;59.272;17.780;2023-03-20T06:15:08;43.53;;;10.67;;
17235;SDS011;8734;59.272;17.780;2023-03-20T06:17:37;36.80;;;9.70;;
17235;SDS011;8734;59.272;17.780;2023-03-20T06:20:06;59.57;;;10.67;;
17235;SDS011;8734;59.272;17.780;2023-03-20T06:22:35;62.53;;;10.97;;
17235;SDS011;8734;59.272;17.780;2023-03-20T06:25:05;25.37;;;6.57;;
17235;SDS011;8734;59.272;17.780;2023-03-20T06:27:34;68.47;;;10.40;;
17235;SDS011;8734;59.272;17.780;2023-03-20T06:30:03;41.50;;;8.27;;
17235;SDS011;8734;59.272;17.780;2023-03-20T06:32:32;57.67;;;10.07;;
17235;SDS011;8734;59.272;17.780;2023-03-20T06:35:00;44.10;;;8.40;;
17235;SDS011;8734;59.272;17.780;2023-03-20T06:37:31;27.70;;;8.00;;
17235;SDS011;8734;59.272;17.780;2023-03-20T06:39:59;63.80;;;12.23;;
17235;SDS011;8734;59.272;17.780;2023-03-20T06:42:30;47.53;;;11.33;;
17235;SDS011;8734;59.272;17.780;2023-03-20T06:44:59;52.87;;;11.90;;
17235;SDS011;8734;59.272;17.780;2023-03-20T06:47:27;66.10;;;13.67;;
17235;SDS011;8734;59.272;17.780;2023-03-20T06:49:55;64.40;;;14.00;;
17235;SDS011;8734;59.272;17.780;2023-03-20T06:52:24;64.93;;;12.40;;
17235;SDS011;8734;59.272;17.780;2023-03-20T06:54:52;65.40;;;12.93;;
17235;SDS011;8734;59.272;17.780;2023-03-20T06:57:21;48.93;;;12.13;;
17235;SDS011;8734;59.272;17.780;2023-03-20T06:59:51;75.27;;;12.57;;
17235;SDS011;8734;59.272;17.780;2023-03-20T07:02:20;54.67;;;12.60;;
17235;SDS011;8734;59.272;17.780;2023-03-20T07:04:48;64.20;;;13.07;;
17235;SDS011;8734;59.272;17.780;2023-03-20T07:07:17;29.03;;;8.63;;
17235;SDS011;8734;59.272;17.780;2023-03-20T07:09:46;64.30;;;13.27;;
17235;SDS011;8734;59.272;17.780;2023-03-20T07:12:15;70.03;;;13.37;;
17235;SDS011;8734;59.272;17.780;2023-03-20T07:14:45;54.77;;;11.53;;
17235;SDS011;8734;59.272;17.780;2023-03-20T07:17:15;40.20;;;11.40;;
17235;SDS011;8734;59.272;17.780;2023-03-20T07:19:43;61.30;;;14.37;;
17235;SDS011;8734;59.272;17.780;2023-03-20T07:22:14;64.27;;;14.00;;
17235;SDS011;8734;59.272;17.780;2023-03-20T07:24:48;68.63;;;14.40;;
17235;SDS011;8734;59.272;17.780;2023-03-20T07:27:16;59.10;;;13.00;;
17235;SDS011;8734;59.272;17.780;2023-03-20T07:29:45;60.30;;;14.30;;
17235;SDS011;8734;59.272;17.780;2023-03-20T07:32:15;57.50;;;14.20;;
17235;SDS011;8734;59.272;17.780;2023-03-20T07:34:43;59.17;;;14.80;;
17235;SDS011;8734;59.272;17.780;2023-03-20T07:37:13;57.43;;;11.97;;
17235;SDS011;8734;59.272;17.780;2023-03-20T07:39:41;63.57;;;14.87;;
17235;SDS011;8734;59.272;17.780;2023-03-20T07:42:10;60.67;;;14.37;;
17235;SDS011;8734;59.272;17.780;2023-03-20T07:44:39;49.77;;;13.07;;
17235;SDS011;8734;59.272;17.780;2023-03-20T07:47:07;57.23;;;14.63;;
17235;SDS011;8734;59.272;17.780;2023-03-20T07:49:37;63.53;;;14.87;;
17235;SDS011;8734;59.272;17.780;2023-03-20T07:52:06;58.50;;;13.77;;
17235;SDS011;8734;59.272;17.780;2023-03-20T07:54:35;65.10;;;15.53;;
17235;SDS011;8734;59.272;17.780;2023-03-20T07:57:03;65.83;;;15.60;;
17235;SDS011;8734;59.272;17.780;2023-03-20T07:59:31;64.97;;;15.77;;
17235;SDS011;8734;59.272;17.780;2023-03-20T08:02:00;61.13;;;15.80;;
17235;SDS011;8734;59.272;17.780;2023-03-20T08:04:28;56.90;;;13.27;;
17235;SDS011;8734;59.272;17.780;2023-03-20T08:06:58;54.77;;;13.47;;
17235;SDS011;8734;59.272;17.780;2023-03-20T08:09:26;57.43;;;14.87;;
17235;SDS011;8734;59.272;17.780;2023-03-20T08:11:55;56.07;;;14.50;;
17235;SDS011;8734;59.272;17.780;2023-03-20T08:14:23;54.23;;;14.40;;
17235;SDS011;8734;59.272;17.780;2023-03-20T08:16:52;59.27;;;15.00;;
17235;SDS011;8734;59.272;17.780;2023-03-20T08:19:39;59.77;;;14.60;;
17235;SDS011;8734;59.272;17.780;2023-03-20T08:22:09;58.70;;;15.23;;
17235;SDS011;8734;59.272;17.780;2023-03-20T08:24:37;48.03;;;14.80;;
17235;SDS011;8734;59.272;17.780;2023-03-20T08:27:06;60.00;;;15.60;;
17235;SDS011;8734;59.272;17.780;2023-03-20T08:29:35;58.83;;;15.07;;
17235;SDS011;8734;59.272;17.780;2023-03-20T08:32:03;60.57;;;15.50;;
17235;SDS011;8734;59.272;17.780;2023-03-20T08:34:32;66.00;;;16.60;;
17235;SDS011;8734;59.272;17.780;2023-03-20T08:37:01;61.73;;;16.40;;
17235;SDS011;8734;59.272;17.780;2023-03-20T08:39:31;68.63;;;16.93;;
17235;SDS011;8734;59.272;17.780;2023-03-20T08:42:01;55.27;;;14.90;;
17235;SDS011;8734;59.272;17.780;2023-03-20T08:44:30;67.67;;;16.47;;
17235;SDS011;8734;59.272;17.780;2023-03-20T08:46:58;62.73;;;15.00;;
17235;SDS011;8734;59.272;17.780;2023-03-20T08:49:27;54.50;;;15.57;;
17235;SDS011;8734;59.272;17.780;2023-03-20T08:51:55;53.53;;;13.07;;
17235;SDS011;8734;59.272;17.780;2023-03-20T08:54:23;58.03;;;15.73;;
17235;SDS011;8734;59.272;17.780;2023-03-20T08:56:53;46.93;;;14.03;;
17235;SDS011;8734;59.272;17.780;2023-03-20T08:59:22;55.07;;;15.40;;
17235;SDS011;8734;59.272;17.780;2023-03-20T09:01:51;64.50;;;15.83;;
17235;SDS011;8734;59.272;17.780;2023-03-20T09:04:19;50.30;;;12.90;;
17235;SDS011;8734;59.272;17.780;2023-03-20T09:06:48;62.50;;;15.53;;
17235;SDS011;8734;59.272;17.780;2023-03-20T09:09:17;60.37;;;15.53;;
17235;SDS011;8734;59.272;17.780;2023-03-20T09:11:47;52.87;;;14.87;;
17235;SDS011;8734;59.272;17.780;2023-03-20T09:14:17;55.03;;;15.23;;
17235;SDS011;8734;59.272;17.780;2023-03-20T09:16:45;48.03;;;13.17;;
17235;SDS011;8734;59.272;17.780;2023-03-20T09:19:14;50.77;;;12.53;;
17235;SDS011;8734;59.272;17.780;2023-03-20T09:21:43;43.40;;;12.97;;
17235;SDS011;8734;59.272;17.780;2023-03-20T09:24:11;56.00;;;13.67;;
17235;SDS011;8734;59.272;17.780;2023-03-20T09:26:40;45.00;;;12.97;;
17235;SDS011;8734;59.272;17.780;2023-03-20T09:29:09;44.40;;;12.13;;
17235;SDS011;8734;59.272;17.780;2023-03-20T09:31:39;42.27;;;11.70;;
17235;SDS011;8734;59.272;17.780;2023-03-20T09:34:07;53.13;;;12.87;;
17235;SDS011;8734;59.272;17.780;2023-03-20T09:36:35;48.40;;;13.73;;
17235;SDS011;8734;59.272;17.780;2023-03-20T09:39:04;43.07;;;12.60;;
17235;SDS011;8734;59.272;17.780;2023-03-20T09:41:32;44.33;;;12.87;;
17235;SDS011;8734;59.272;17.780;2023-03-20T09:44:24;42.13;;;12.87;;
17235;SDS011;8734;59.272;17.780;2023-03-20T09:47:15;31.37;;;10.37;;
17235;SDS011;8734;59.272;17.780;2023-03-20T09:49:53;44.17;;;12.63;;
17235;SDS011;8734;59.272;17.780;2023-03-20T09:52:35;51.10;;;13.83;;
17235;SDS011;8734;59.272;17.780;2023-03-20T09:55:10;47.27;;;14.07;;
17235;SDS011;8734;59.272;17.780;2023-03-20T09:57:43;52.47;;;14.20;;
17235;SDS011;8734;59.272;17.780;2023-03-20T10:00:14;45.33;;;14.20;;
17235;SDS011;8734;59.272;17.780;2023-03-20T10:02:48;61.07;;;15.77;;
17235;SDS011;8734;59.272;17.780;2023-03-20T10:05:20;48.93;;;14.87;;
17235;SDS011;8734;59.272;17.780;2023-03-20T10:07:52;44.37;;;11.97;;
17235;SDS011;8734;59.272;17.780;2023-03-20T10:10:25;50.17;;;14.10;;
17235;SDS011;8734;59.272;17.780;2023-03-20T10:13:01;48.60;;;14.53;;
17235;SDS011;8734;59.272;17.780;2023-03-20T10:15:40;55.30;;;15.83;;
17235;SDS011;8734;59.272;17.780;2023-03-20T10:18:17;54.87;;;16.13;;
17235;SDS011;8734;59.272;17.780;2023-03-20T10:20:53;57.00;;;15.73;;
17235;SDS011;8734;59.272;17.780;2023-03-20T10:23:25;50.20;;;14.37;;
17235;SDS011;8734;59.272;17.780;2023-03-20T10:26:02;50.77;;;16.27;;
17235;SDS011;8734;59.272;17.780;2023-03-20T10:28:34;49.93;;;16.23;;
17235;SDS011;8734;59.272;17.780;2023-03-20T10:31:12;56.00;;;16.17;;
17235;SDS011;8734;59.272;17.780;2023-03-20T10:34:01;50.20;;;16.03;;
17235;SDS011;8734;59.272;17.780;2023-03-20T10:36:53;54.57;;;15.73;;
17235;SDS011;8734;59.272;17.780;2023-03-20T10:39:38;35.57;;;10.63;;
17235;SDS011;8734;59.272;17.780;2023-03-20T10:42:17;55.23;;;16.37;;
17235;SDS011;8734;59.272;17.780;2023-03-20T10:44:49;55.03;;;16.47;;
17235;SDS011;8734;59.272;17.780;2023-03-20T10:47:22;25.80;;;8.07;;
17235;SDS011;8734;59.272;17.780;2023-03-20T10:49:54;57.23;;;15.57;;
17235;SDS011;8734;59.272;17.780;2023-03-20T10:52:28;53.57;;;17.10;;
17235;SDS011;8734;59.272;17.780;2023-03-20T10:55:00;54.23;;;17.07;;
17235;SDS011;8734;59.272;17.780;2023-03-20T10:57:32;57.97;;;15.90;;
17235;SDS011;8734;59.272;17.780;2023-03-20T11:00:12;54.50;;;16.13;;
17235;SDS011;8734;59.272;17.780;2023-03-20T11:02:45;53.47;;;15.70;;
17235;SDS011;8734;59.272;17.780;2023-03-20T11:05:20;47.43;;;15.33;;
17235;SDS011;8734;59.272;17.780;2023-03-20T11:07:59;39.13;;;12.30;;
17235;SDS011;8734;59.272;17.780;2023-03-20T11:10:30;39.10;;;14.67;;
17235;SDS011;8734;59.272;17.780;2023-03-20T11:13:03;38.77;;;14.80;;
17235;SDS011;8734;59.272;17.780;2023-03-20T11:15:42;41.77;;;15.40;;
17235;SDS011;8734;59.272;17.780;2023-03-20T11:18:11;40.27;;;14.37;;
17235;SDS011;8734;59.272;17.780;2023-03-20T11:20:45;39.47;;;15.30;;
17235;SDS011;8734;59.272;17.780;2023-03-20T11:23:16;40.70;;;13.60;;
17235;SDS011;8734;59.272;17.780;2023-03-20T11:25:48;43.20;;;14.50;;
17235;SDS011;8734;59.272;17.780;2023-03-20T11:31:04;44.43;;;15.20;;
17235;SDS011;8734;59.272;17.780;2023-03-20T11:33:42;43.27;;;16.03;;
17235;SDS011;8734;59.272;17.780;2023-03-20T11:36:20;43.70;;;15.73;;
17235;SDS011;8734;59.272;17.780;2023-03-20T11:38:53;45.53;;;15.30;;
17235;SDS011;8734;59.272;17.780;2023-03-20T11:41:27;45.07;;;15.63;;
17235;SDS011;8734;59.272;17.780;2023-03-20T11:43:56;44.43;;;16.30;;
17235;SDS011;8734;59.272;17.780;2023-03-20T11:46:24;42.20;;;16.40;;
17235;SDS011;8734;59.272;17.780;2023-03-20T11:49:03;47.10;;;17.03;;
17235;SDS011;8734;59.272;17.780;2023-03-20T11:51:35;47.60;;;15.57;;
17235;SDS011;8734;59.272;17.780;2023-03-20T11:54:05;45.23;;;15.83;;
17235;SDS011;8734;59.272;17.780;2023-03-20T11:56:49;45.00;;;16.90;;
17235;SDS011;8734;59.272;17.780;2023-03-20T11:59:20;52.53;;;18.07;;
17235;SDS011;8734;59.272;17.780;2023-03-20T12:01:49;54.10;;;18.43;;
17235;SDS011;8734;59.272;17.780;2023-03-20T12:04:19;50.37;;;16.70;;
17235;SDS011;8734;59.272;17.780;2023-03-20T12:06:56;49.60;;;17.70;;
17235;SDS011;8734;59.272;17.780;2023-03-20T12:09:32;49.00;;;17.90;;
17235;SDS011;8734;59.272;17.780;2023-03-20T12:12:07;45.43;;;17.80;;
17235;SDS011;8734;59.272;17.780;2023-03-20T12:14:42;50.83;;;16.87;;
17235;SDS011;8734;59.272;17.780;2023-03-20T12:20:13;52.67;;;18.17;;
17235;SDS011;8734;59.272;17.780;2023-03-20T12:22:55;49.57;;;18.20;;
17235;SDS011;8734;59.272;17.780;2023-03-20T12:25:31;47.73;;;16.70;;
17235;SDS011;8734;59.272;17.780;2023-03-20T12:28:10;41.77;;;16.00;;
17235;SDS011;8734;59.272;17.780;2023-03-20T12:30:48;37.43;;;14.93;;
17235;SDS011;8734;59.272;17.780;2023-03-20T12:33:28;35.10;;;14.30;;
17235;SDS011;8734;59.272;17.780;2023-03-20T12:36:06;36.77;;;14.80;;
17235;SDS011;8734;59.272;17.780;2023-03-20T12:38:41;36.50;;;15.83;;
17235;SDS011;8734;59.272;17.780;2023-03-20T12:41:11;34.70;;;14.53;;
17235;SDS011;8734;59.272;17.780;2023-03-20T12:46:46;36.10;;;14.00;;
17235;SDS011;8734;59.272;17.780;2023-03-20T12:49:25;31.13;;;14.07;;
17235;SDS011;8734;59.272;17.780;2023-03-20T12:52:02;28.37;;;12.10;;
17235;SDS011;8734;59.272;17.780;2023-03-20T12:54:42;21.33;;;9.47;;
17235;SDS011;8734;59.272;17.780;2023-03-20T12:57:23;27.07;;;11.70;;
17235;SDS011;8734;59.272;17.780;2023-03-20T13:00:02;24.83;;;10.87;;
17235;SDS011;8734;59.272;17.780;2023-03-20T13:02:43;24.80;;;9.10;;
17235;SDS011;8734;59.272;17.780;2023-03-20T13:05:24;17.07;;;7.43;;
17235;SDS011;8734;59.272;17.780;2023-03-20T13:11:02;15.23;;;5.77;;
17235;SDS011;8734;59.272;17.780;2023-03-20T13:13:36;10.30;;;5.03;;
17235;SDS011;8734;59.272;17.780;2023-03-20T13:16:14;11.27;;;4.93;;
17235;SDS011;8734;59.272;17.780;2023-03-20T13:18:49;11.43;;;4.47;;
17235;SDS011;8734;59.272;17.780;2023-03-20T13:21:27;7.17;;;3.90;;
17235;SDS011;8734;59.272;17.780;2023-03-20T13:24:10;8.80;;;4.07;;
17235;SDS011;8734;59.272;17.780;2023-03-20T13:26:49;10.47;;;4.07;;
17235;SDS011;8734;59.272;17.780;2023-03-20T13:29:25;7.07;;;4.17;;
17235;SDS011;8734;59.272;17.780;2023-03-20T13:31:59;7.63;;;4.10;;
17235;SDS011;8734;59.272;17.780;2023-03-20T13:34:40;7.17;;;3.73;;
17235;SDS011;8734;59.272;17.780;2023-03-20T13:37:22;10.80;;;4.13;;
17235;SDS011;8734;59.272;17.780;2023-03-20T13:40:00;6.17;;;3.97;;
17235;SDS011;8734;59.272;17.780;2023-03-20T13:42:35;8.33;;;4.80;;
17235;SDS011;8734;59.272;17.780;2023-03-20T13:45:12;9.17;;;4.40;;
17235;SDS011;8734;59.272;17.780;2023-03-20T13:47:57;6.27;;;3.73;;
17235;SDS011;8734;59.272;17.780;2023-03-20T13:50:34;4.40;;;2.63;;
17235;SDS011;8734;59.272;17.780;2023-03-20T13:53:11;3.23;;;2.00;;
17235;SDS011;8734;59.272;17.780;2023-03-20T13:55:47;2.43;;;1.60;;
17235;SDS011;8734;59.272;17.780;2023-03-20T13:58:34;2.70;;;2.17;;
17235;SDS011;8734;59.272;17.780;2023-03-20T14:01:20;2.17;;;1.50;;
17235;SDS011;8734;59.272;17.780;2023-03-20T14:03:55;1.90;;;1.47;;
17235;SDS011;8734;59.272;17.780;2023-03-20T14:06:42;1.30;;;1.20;;
17235;SDS011;8734;59.272;17.780;2023-03-20T14:09:30;1.43;;;1.03;;
17235;SDS011;8734;59.272;17.780;2023-03-20T14:12:00;1.27;;;1.10;;
17235;SDS011;8734;59.272;17.780;2023-03-20T14:14:40;3.70;;;0.90;;
17235;SDS011;8734;59.272;17.780;2023-03-20T14:17:17;1.07;;;1.00;;
17235;SDS011;8734;59.272;17.780;2023-03-20T14:19:47;0.93;;;0.87;;
17235;SDS011;8734;59.272;17.780;2023-03-20T14:22:17;1.90;;;0.90;;
17235;SDS011;8734;59.272;17.780;2023-03-20T14:24:50;3.90;;;0.80;;
17235;SDS011;8734;59.272;17.780;2023-03-20T14:27:23;0.87;;;0.87;;
17235;SDS011;8734;59.272;17.780;2023-03-20T14:33:22;0.90;;;0.90;;
17235;SDS011;8734;59.272;17.780;2023-03-20T14:36:10;1.03;;;0.93;;
17235;SDS011;8734;59.272;17.780;2023-03-20T14:38:46;1.27;;;1.17;;
17235;SDS011;8734;59.272;17.780;2023-03-20T14:41:21;1.20;;;1.10;;
17235;SDS011;8734;59.272;17.780;2023-03-20T14:43:59;1.97;;;1.20;;
17235;SDS011;8734;59.272;17.780;2023-03-20T14:46:41;1.23;;;1.13;;
17235;SDS011;8734;59.272;17.780;2023-03-20T14:49:22;1.10;;;1.00;;
17235;SDS011;8734;59.272;17.780;2023-03-20T14:51:57;2.20;;;1.30;;
17235;SDS011;8734;59.272;17.780;2023-03-20T14:54:29;0.90;;;0.90;;
17235;SDS011;8734;59.272;17.780;2023-03-20T14:57:07;1.30;;;1.20;;
17235;SDS011;8734;59.272;17.780;2023-03-20T14:59:36;1.10;;;1.00;;
17235;SDS011;8734;59.272;17.780;2023-03-20T15:02:19;0.70;;;0.70;;
17235;SDS011;8734;59.272;17.780;2023-03-20T15:04:52;0.80;;;0.60;;
17235;SDS011;8734;59.272;17.780;2023-03-20T15:07:22;0.50;;;0.50;;
17235;SDS011;8734;59.272;17.780;2023-03-20T15:09:55;0.50;;;0.50;;
17235;SDS011;8734;59.272;17.780;2023-03-20T15:12:29;0.50;;;0.50;;
17235;SDS011;8734;59.272;17.780;2023-03-20T15:15:01;0.77;;;0.60;;
17235;SDS011;8734;59.272;17.780;2023-03-20T15:17:36;0.57;;;0.57;;
17235;SDS011;8734;59.272;17.780;2023-03-20T15:20:09;0.70;;;0.70;;
17235;SDS011;8734;59.272;17.780;2023-03-20T15:22:48;0.70;;;0.70;;
17235;SDS011;8734;59.272;17.780;2023-03-20T15:25:17;0.50;;;0.50;;
17235;SDS011;8734;59.272;17.780;2023-03-20T15:27:47;1.53;;;0.50;;
17235;SDS011;8734;59.272;17.780;2023-03-20T15:30:18;0.50;;;0.50;;